createdAt,value
2018-12-03T00:00:53.557Z,11.66
2018-12-03T00:04:02.122Z,11.63
2018-12-03T00:07:06.999Z,11.60
2018-12-03T00:10:12.127Z,11.58
2018-12-03T00:13:16.993Z,11.58
2018-12-03T00:16:21.983Z,11.57
2018-12-03T00:19:27.078Z,11.57
2018-12-03T00:22:31.935Z,11.74
2018-12-03T00:25:36.854Z,11.76
2018-12-03T00:28:41.785Z,11.61
2018-12-03T00:31:46.784Z,11.67
2018-12-03T00:34:51.699Z,11.63
2018-12-03T00:37:56.614Z,11.69
2018-12-03T00:41:01.469Z,11.74
2018-12-03T00:44:06.478Z,11.67
2018-12-03T00:47:11.362Z,11.69
2018-12-03T00:50:16.279Z,11.68
2018-12-03T00:53:21.143Z,11.81
2018-12-03T00:56:26.005Z,11.69
2018-12-03T00:59:30.842Z,11.74
2018-12-03T01:02:35.713Z,11.72
2018-12-03T01:05:40.529Z,11.73
2018-12-03T01:08:45.384Z,11.71
2018-12-03T01:11:50.138Z,11.69
2018-12-03T01:14:55.026Z,11.71
2018-12-03T01:17:59.904Z,11.69
2018-12-03T01:21:05.333Z,11.74
2018-12-03T01:24:10.168Z,11.73
2018-12-03T01:27:15.169Z,11.73
2018-12-03T01:30:20.088Z,11.71
2018-12-03T01:33:24.949Z,11.71
2018-12-03T01:36:29.796Z,11.78
2018-12-03T01:39:34.676Z,11.84
2018-12-03T01:42:39.818Z,11.91
2018-12-03T01:45:45.199Z,11.86
2018-12-03T01:48:50.058Z,11.82
2018-12-03T01:51:54.905Z,11.88
2018-12-03T01:54:59.821Z,11.85
2018-12-03T01:58:04.655Z,11.85
2018-12-03T02:01:09.543Z,11.85
2018-12-03T02:04:14.477Z,11.92
2018-12-03T02:07:19.374Z,11.92
2018-12-03T02:10:24.436Z,11.98
2018-12-03T02:13:29.397Z,11.90
2018-12-03T02:16:34.318Z,11.92
2018-12-03T02:19:39.243Z,11.87
2018-12-03T02:22:44.614Z,11.90
2018-12-03T02:25:49.444Z,11.87
2018-12-03T02:28:54.323Z,11.89
2018-12-03T02:31:59.145Z,11.91
2018-12-03T02:35:03.993Z,11.92
2018-12-03T02:38:08.859Z,11.90
2018-12-03T02:41:14.354Z,11.93
2018-12-03T02:44:19.179Z,11.93
2018-12-03T02:47:24.124Z,11.93
2018-12-03T02:50:29.862Z,12.02
2018-12-03T02:53:34.758Z,12.03
2018-12-03T02:56:39.581Z,12.04
2018-12-03T02:59:45.459Z,12.02
2018-12-03T03:02:50.407Z,12.00
2018-12-03T03:05:55.272Z,11.99
2018-12-03T03:09:00.253Z,11.99
2018-12-03T03:12:05.123Z,12.02
2018-12-03T03:15:12.003Z,12.02
2018-12-03T03:18:16.858Z,11.97
2018-12-03T03:21:21.697Z,12.04
2018-12-03T03:24:26.526Z,12.05
2018-12-03T03:27:31.417Z,12.00
2018-12-03T03:30:36.267Z,11.97
2018-12-03T03:33:41.210Z,12.03
2018-12-03T03:36:46.112Z,11.98
2018-12-03T03:39:50.982Z,12.01
2018-12-03T03:42:55.945Z,11.99
2018-12-03T03:46:00.772Z,12.07
2018-12-03T03:49:06.142Z,12.03
2018-12-03T03:52:10.978Z,12.00
2018-12-03T03:55:15.968Z,12.10
2018-12-03T03:58:20.834Z,12.08
2018-12-03T04:01:25.958Z,12.07
2018-12-03T04:04:30.830Z,12.04
2018-12-03T04:07:35.672Z,12.03
2018-12-03T04:10:40.578Z,12.00
2018-12-03T04:13:45.852Z,12.00
2018-12-03T04:16:50.677Z,12.01
2018-12-03T04:19:55.658Z,11.99
2018-12-03T04:23:00.597Z,11.97
2018-12-03T04:26:05.524Z,11.89
2018-12-03T04:29:10.378Z,11.97
2018-12-03T04:32:15.302Z,11.98
2018-12-03T04:35:20.358Z,11.97
2018-12-03T04:38:25.348Z,11.97
2018-12-03T04:41:30.268Z,11.94
2018-12-03T04:44:35.124Z,12.00
2018-12-03T04:47:40.497Z,11.98
2018-12-03T04:50:46.011Z,11.96
2018-12-03T04:53:50.870Z,11.97
2018-12-03T04:56:55.775Z,11.97
2018-12-03T05:00:00.723Z,11.89
2018-12-03T05:03:05.971Z,11.89
2018-12-03T05:06:10.835Z,11.97
2018-12-03T05:09:15.704Z,11.96
2018-12-03T05:12:20.584Z,11.88
2018-12-03T05:15:25.638Z,11.88
2018-12-03T05:18:30.869Z,11.83
2018-12-03T05:21:35.677Z,11.82
2018-12-03T05:24:40.597Z,11.75
2018-12-03T05:27:45.931Z,11.73
2018-12-03T05:30:50.799Z,11.67
2018-12-03T05:33:55.759Z,11.68
2018-12-03T05:37:00.784Z,11.67
2018-12-03T05:40:08.392Z,11.71
2018-12-03T05:43:13.313Z,11.68
2018-12-03T05:46:18.143Z,11.63
2018-12-03T05:49:23.017Z,11.62
2018-12-03T05:52:27.869Z,11.64
2018-12-03T05:55:32.765Z,11.68
2018-12-03T05:58:37.649Z,11.71
2018-12-03T06:01:42.470Z,11.66
2018-12-03T06:04:47.350Z,11.69
2018-12-03T06:07:52.592Z,11.73
2018-12-03T06:10:57.445Z,11.61
2018-12-03T06:14:02.309Z,11.60
2018-12-03T06:17:07.229Z,11.74
2018-12-03T06:20:19.092Z,11.79
2018-12-03T06:23:23.984Z,11.75
2018-12-03T06:26:28.829Z,11.74
2018-12-03T06:29:33.991Z,11.74
2018-12-03T06:32:38.909Z,11.73
2018-12-03T06:35:43.805Z,11.73
2018-12-03T06:38:48.695Z,11.67
2018-12-03T06:41:53.596Z,11.69
2018-12-03T06:44:58.430Z,11.66
2018-12-03T06:48:14.046Z,11.49
2018-12-03T06:51:19.019Z,11.42
2018-12-03T06:54:23.941Z,11.40
2018-12-03T06:57:28.769Z,11.38
2018-12-03T07:00:33.786Z,11.32
2018-12-03T07:03:38.697Z,11.27
2018-12-03T07:06:43.564Z,11.27
2018-12-03T07:09:48.471Z,11.25
2018-12-03T07:12:55.061Z,11.25
2018-12-03T07:16:00.007Z,11.27
2018-12-03T07:19:04.866Z,11.33
2018-12-03T07:22:09.752Z,11.32
2018-12-03T07:25:15.411Z,11.38
2018-12-03T07:28:20.315Z,11.42
2018-12-03T07:31:25.206Z,11.40
2018-12-03T07:34:30.114Z,11.38
2018-12-03T07:37:34.970Z,11.38
2018-12-03T07:40:39.801Z,11.38
2018-12-03T07:43:45.386Z,11.42
2018-12-03T07:46:50.267Z,11.42
2018-12-03T07:49:55.141Z,11.41
2018-12-03T07:53:00.174Z,11.38
2018-12-03T07:56:05.166Z,11.39
2018-12-03T07:59:10.099Z,11.42
2018-12-03T08:02:15.436Z,11.40
2018-12-03T08:05:20.401Z,11.44
2018-12-03T08:08:25.317Z,11.49
2018-12-03T08:11:30.678Z,11.42
2018-12-03T08:14:35.720Z,11.44
2018-12-03T08:17:40.665Z,11.45
2018-12-03T08:20:51.907Z,11.40
2018-12-03T08:24:06.323Z,11.40
2018-12-03T08:27:11.177Z,11.45
2018-12-03T08:30:16.083Z,11.41
2018-12-03T08:33:20.937Z,11.33
2018-12-03T08:36:25.816Z,11.25
2018-12-03T08:39:30.721Z,11.25
2018-12-03T08:42:36.369Z,11.24
2018-12-03T08:45:41.333Z,11.26
2018-12-03T08:48:46.533Z,11.29
2018-12-03T08:51:51.442Z,11.33
2018-12-03T08:54:56.353Z,11.31
2018-12-03T08:58:01.403Z,11.27
2018-12-03T09:01:11.128Z,11.12
2018-12-03T09:04:18.273Z,11.12
2018-12-03T09:07:23.126Z,11.05
2018-12-03T09:10:27.943Z,10.98
2018-12-03T09:13:32.861Z,11.01
2018-12-03T09:16:37.716Z,11.11
2018-12-03T09:19:44.257Z,11.26
2018-12-03T09:22:49.085Z,11.44
2018-12-03T09:25:53.916Z,11.46
2018-12-03T09:28:58.817Z,11.57
2018-12-03T09:32:03.690Z,11.57
2018-12-03T09:35:10.296Z,11.68
2018-12-03T09:38:15.867Z,11.76
2018-12-03T09:41:20.736Z,11.75
2018-12-03T09:44:25.583Z,11.82
2018-12-03T09:47:30.822Z,11.88
2018-12-03T09:50:35.761Z,12.00
2018-12-03T09:53:40.643Z,11.97
2018-12-03T09:56:47.666Z,12.03
2018-12-03T09:59:52.535Z,12.08
2018-12-03T10:02:58.616Z,12.20
2018-12-03T10:06:13.105Z,12.19
2018-12-03T10:09:17.984Z,12.11
2018-12-03T10:12:22.925Z,12.20
2018-12-03T10:15:28.851Z,12.30
2018-12-03T10:18:33.821Z,12.18
2018-12-03T10:21:38.928Z,12.29
2018-12-03T10:24:43.810Z,12.52
2018-12-03T10:27:48.656Z,12.58
2018-12-03T10:30:54.963Z,12.48
2018-12-03T10:33:59.880Z,12.37
2018-12-03T10:37:04.721Z,12.34
2018-12-03T10:40:17.231Z,12.38
2018-12-03T10:43:22.056Z,12.22
2018-12-03T10:46:26.970Z,12.21
2018-12-03T10:49:31.963Z,12.17
2018-12-03T10:52:36.807Z,12.11
2018-12-03T10:55:45.397Z,12.06
2018-12-03T10:58:50.241Z,12.10
2018-12-03T11:01:55.991Z,12.20
2018-12-03T11:05:34.498Z,12.07
2018-12-03T11:08:39.605Z,12.11
2018-12-03T11:11:50.185Z,12.02
2018-12-03T11:14:55.090Z,12.13
2018-12-03T11:18:00.451Z,12.17
2018-12-03T11:21:06.241Z,12.22
2018-12-03T11:24:16.219Z,12.37
2018-12-03T11:27:22.106Z,12.48
2018-12-03T11:30:27.037Z,12.50
2018-12-03T11:33:31.926Z,12.67
2018-12-03T11:36:48.054Z,12.72
2018-12-03T11:39:57.404Z,12.76
2018-12-03T11:43:02.353Z,12.87
2018-12-03T11:46:07.582Z,12.62
2018-12-03T11:52:06.178Z,12.63
2018-12-03T11:55:09.944Z,12.65
2018-12-03T11:58:13.451Z,12.50
2018-12-03T12:01:16.952Z,12.46
2018-12-03T12:04:20.487Z,12.60
2018-12-03T12:07:23.999Z,12.37
2018-12-03T12:10:27.472Z,12.28
2018-12-03T12:13:31.082Z,12.21
2018-12-03T12:16:34.563Z,12.19
2018-12-03T12:19:38.003Z,12.13
2018-12-03T12:22:41.627Z,12.28
2018-12-03T12:25:45.902Z,12.32
2018-12-03T12:28:49.491Z,12.41
2018-12-03T12:31:53.367Z,12.38
2018-12-03T12:34:56.907Z,12.53
2018-12-03T12:38:00.478Z,12.56
2018-12-03T12:41:04.104Z,12.60
2018-12-03T12:44:09.265Z,12.32
2018-12-03T12:47:12.743Z,12.38
2018-12-03T12:50:17.675Z,12.22
2018-12-03T12:53:21.451Z,12.00
2018-12-03T12:56:24.897Z,11.96
2018-12-03T12:59:28.390Z,11.92
2018-12-03T13:02:32.015Z,11.87
2018-12-03T13:05:35.633Z,11.83
2018-12-03T13:08:39.084Z,11.87
2018-12-03T13:11:42.733Z,11.90
2018-12-03T13:14:46.174Z,11.88
2018-12-03T13:17:49.912Z,11.77
2018-12-03T13:20:53.785Z,11.76
2018-12-03T13:23:57.418Z,11.92
2018-12-03T13:27:00.927Z,11.89
2018-12-03T13:30:05.407Z,11.97
2018-12-03T13:33:09.113Z,12.04
2018-12-03T13:36:12.853Z,12.06
2018-12-03T13:39:16.363Z,12.13
2018-12-03T13:42:19.889Z,12.05
2018-12-03T13:45:25.965Z,12.10
2018-12-03T13:48:29.519Z,11.94
2018-12-03T13:51:33.573Z,11.94
2018-12-03T13:54:37.070Z,11.97
2018-12-03T13:57:41.023Z,11.97
2018-12-03T14:00:46.224Z,11.88
2018-12-03T14:03:51.778Z,11.93
2018-12-03T14:07:04.126Z,11.85
2018-12-03T14:10:23.152Z,11.89
2018-12-03T14:13:44.273Z,11.90
2018-12-03T14:17:22.755Z,11.87
2018-12-03T14:20:29.553Z,11.81
2018-12-03T14:23:35.900Z,11.71
2018-12-03T14:26:39.503Z,11.77
2018-12-03T14:29:43.135Z,11.78
2018-12-03T14:32:46.764Z,11.91
2018-12-03T14:35:50.264Z,11.84
2018-12-03T14:38:53.729Z,11.78
2018-12-03T14:41:57.243Z,11.83
2018-12-03T14:45:00.897Z,11.64
2018-12-03T14:48:04.720Z,11.60
2018-12-03T14:51:08.232Z,11.75
2018-12-03T14:54:12.134Z,11.70
2018-12-03T14:57:15.622Z,11.69
2018-12-03T15:00:19.258Z,11.63
2018-12-03T15:03:22.779Z,11.63
2018-12-03T15:06:26.300Z,11.55
2018-12-03T15:09:29.799Z,11.43
2018-12-03T15:12:33.560Z,11.24
2018-12-03T15:15:37.043Z,11.30
2018-12-03T15:18:40.535Z,11.12
2018-12-03T15:21:43.973Z,11.08
2018-12-03T15:24:47.587Z,11.14
2018-12-03T15:27:51.298Z,11.18
2018-12-03T15:30:54.765Z,11.20
2018-12-03T15:33:58.274Z,11.23
2018-12-03T15:37:01.800Z,11.13
2018-12-03T15:40:08.680Z,11.13
2018-12-03T15:43:12.333Z,10.92
2018-12-03T15:46:15.928Z,10.96
2018-12-03T15:49:19.515Z,10.77
2018-12-03T15:52:23.047Z,10.54
2018-12-03T15:55:26.580Z,10.66
2018-12-03T15:58:30.093Z,10.66
2018-12-03T16:01:33.659Z,10.68
2018-12-03T16:04:37.216Z,10.54
2018-12-03T16:07:40.863Z,10.46
2018-12-03T16:10:44.679Z,10.57
2018-12-03T16:13:48.239Z,10.67
2018-12-03T16:16:51.860Z,10.57
2018-12-03T16:20:02.182Z,10.49
2018-12-03T16:23:05.699Z,10.68
2018-12-03T16:26:09.255Z,10.74
2018-12-03T16:29:12.890Z,10.77
2018-12-03T16:32:16.458Z,10.89
2018-12-03T16:35:19.993Z,10.86
2018-12-03T16:38:23.650Z,10.77
2018-12-03T16:41:27.139Z,10.77
2018-12-03T16:44:30.831Z,10.67
2018-12-03T16:47:34.474Z,10.80
2018-12-03T16:50:38.039Z,10.66
2018-12-03T16:53:41.608Z,10.67
2018-12-03T16:56:46.720Z,10.59
2018-12-03T16:59:50.349Z,10.60
2018-12-03T17:02:53.905Z,10.55
2018-12-03T17:05:57.355Z,10.63
2018-12-03T17:09:00.906Z,10.55
2018-12-03T17:12:04.415Z,10.57
2018-12-03T17:15:08.041Z,10.59
2018-12-03T17:18:11.518Z,10.59
2018-12-03T17:21:21.450Z,10.65
2018-12-03T17:24:29.766Z,10.58
2018-12-03T17:27:33.326Z,10.56
2018-12-03T17:30:36.880Z,10.64
2018-12-03T17:33:40.419Z,10.57
2018-12-03T17:36:44.105Z,10.63
2018-12-03T17:39:47.679Z,10.63
2018-12-03T17:42:51.406Z,10.40
2018-12-03T17:45:54.869Z,10.24
2018-12-03T17:48:58.430Z,10.34
2018-12-03T17:52:02.049Z,10.25
2018-12-03T17:55:06.526Z,10.38
2018-12-03T17:58:10.090Z,10.41
2018-12-03T18:01:13.541Z,10.57
2018-12-03T18:04:17.125Z,10.57
2018-12-03T18:07:20.691Z,10.48
2018-12-03T18:10:25.072Z,10.36
2018-12-03T18:13:28.611Z,10.37
2018-12-03T18:16:32.139Z,10.49
2018-12-03T18:19:35.807Z,10.29
2018-12-03T18:22:39.476Z,10.30
2018-12-03T18:25:43.092Z,10.31
2018-12-03T18:28:47.197Z,10.39
2018-12-03T18:31:50.672Z,10.52
2018-12-03T18:34:54.191Z,10.55
2018-12-03T18:37:57.766Z,10.50
2018-12-03T18:41:03.411Z,10.60
2018-12-03T18:44:06.902Z,10.54
2018-12-03T18:47:10.505Z,10.53
2018-12-03T18:50:32.948Z,10.52
2018-12-03T18:53:37.656Z,10.31
2018-12-03T18:56:41.146Z,10.21
2018-12-03T18:59:44.662Z,10.33
2018-12-03T19:02:48.101Z,10.30
2018-12-03T19:05:51.693Z,10.30
2018-12-03T19:08:55.335Z,10.38
2018-12-03T19:11:58.781Z,10.51
2018-12-03T19:15:02.368Z,10.54
2018-12-03T19:18:05.966Z,10.50
2018-12-03T19:21:09.551Z,10.50
2018-12-03T19:24:13.075Z,10.67
2018-12-03T19:27:16.585Z,10.65
2018-12-03T19:30:20.276Z,10.67
2018-12-03T19:33:23.761Z,10.70
2018-12-03T19:36:27.352Z,10.69
2018-12-03T19:39:31.093Z,10.70
2018-12-03T19:42:34.666Z,10.74
2018-12-03T19:45:38.130Z,10.83
2018-12-03T19:48:41.682Z,10.80
2018-12-03T19:51:45.157Z,10.79
2018-12-03T19:54:49.465Z,10.88
2018-12-03T19:58:02.432Z,10.90
2018-12-03T20:01:05.901Z,10.90
2018-12-03T20:04:25.105Z,10.86
2018-12-03T20:07:28.632Z,10.85
2018-12-03T20:10:32.312Z,10.82
2018-12-03T20:13:35.963Z,10.78
2018-12-03T20:16:39.483Z,10.72
2018-12-03T20:19:43.132Z,10.75
2018-12-03T20:22:57.402Z,10.71
2018-12-03T20:26:11.108Z,10.60
2018-12-03T20:31:36.081Z,10.66
2018-12-03T20:34:49.018Z,10.65
2018-12-03T20:38:06.626Z,10.59
2018-12-03T20:41:23.796Z,10.57
2018-12-03T20:44:32.822Z,10.56
2018-12-03T20:47:39.994Z,10.57
2018-12-03T20:50:54.857Z,10.55
2018-12-03T20:53:58.507Z,10.60
2018-12-03T20:57:02.091Z,10.63
2018-12-03T21:00:06.475Z,10.48
2018-12-03T21:03:09.981Z,10.54
2018-12-03T21:06:13.595Z,10.46
2018-12-03T21:09:17.150Z,10.49
2018-12-03T21:12:20.730Z,10.46
2018-12-03T21:15:24.276Z,10.37
2018-12-03T21:18:27.785Z,10.30
2018-12-03T21:21:31.353Z,10.16
2018-12-03T21:24:34.926Z,10.18
2018-12-03T21:27:38.487Z,10.13
2018-12-03T21:30:42.068Z,10.12
2018-12-03T21:33:46.765Z,10.08
2018-12-03T21:36:50.376Z,10.08
2018-12-03T21:39:54.113Z,10.14
2018-12-03T21:42:57.632Z,10.15
2018-12-03T21:46:02.442Z,10.14
2018-12-03T21:49:06.285Z,10.12
2018-12-03T21:52:09.980Z,10.16
2018-12-03T21:55:13.865Z,10.14
2018-12-03T21:58:17.728Z,10.22
2018-12-03T22:01:21.185Z,10.33
2018-12-03T22:04:24.852Z,10.29
2018-12-03T22:07:28.506Z,10.27
2018-12-03T22:10:32.021Z,10.28
2018-12-03T22:13:35.573Z,10.34
2018-12-03T22:16:39.112Z,10.30
2018-12-03T22:19:42.757Z,10.37
2018-12-03T22:28:19.003Z,10.19
2018-12-03T22:31:22.618Z,10.11
2018-12-03T22:34:26.198Z,10.03
2018-12-03T22:37:29.708Z,10.01
2018-12-03T22:40:33.240Z,10.06
2018-12-03T22:43:36.802Z,10.01
2018-12-03T22:46:40.330Z,10.06
2018-12-03T22:49:43.889Z,10.12
2018-12-03T22:52:47.766Z,9.72
2018-12-03T22:55:51.273Z,9.55
2018-12-03T22:58:54.741Z,9.20
2018-12-03T23:01:58.497Z,8.93
2018-12-03T23:05:02.012Z,8.81
2018-12-03T23:08:05.551Z,8.64
2018-12-03T23:11:09.183Z,8.60
2018-12-03T23:14:12.705Z,8.53
2018-12-03T23:17:17.276Z,8.53
2018-12-03T23:20:24.522Z,8.37
2018-12-03T23:23:27.985Z,8.33
2018-12-03T23:26:31.490Z,8.01
2018-12-03T23:29:35.120Z,7.79
2018-12-03T23:32:38.605Z,7.71
2018-12-03T23:35:42.196Z,7.72
2018-12-03T23:38:45.706Z,7.74
2018-12-03T23:41:49.173Z,7.64
2018-12-03T23:44:52.700Z,7.60
2018-12-03T23:47:56.261Z,7.58
2018-12-03T23:51:00.096Z,7.56
2018-12-03T23:54:03.575Z,7.60
2018-12-03T23:57:07.207Z,7.61
